Time;durP1;ratioP1;P1;durP2;ratioP2;P2;SDS_P1;SDS_P2;PMS_P1;PMS_P2;Temp;Humidity;BMP_temperature;BMP_pressure;BME280_temperature;BME280_humidity;BME280_pressure;Samples;Min_cycle;Max_cycle;Signal;HPM_P1;HPM_P2
2021/11/28 00:00:21;;;;;;;17.10;8.67;;;;;;;-0.28;89.56;95882.50;6370058;27;20177;-65
2021/11/28 00:03:24;;;;;;;18.13;10.10;;;;;;;-0.27;89.60;95885.00;6345737;27;20190;-65
2021/11/28 00:06:28;;;;;;;20.43;11.37;;;;;;;-0.27;89.19;95864.25;6367819;27;20279;-65
2021/11/28 00:15:35;;;;;;;22.10;11.87;;;;;;;-0.30;89.64;95848.91;6369083;28;20197;-66
2021/11/28 00:18:37;;;;;;;20.07;11.93;;;;;;;-0.30;89.36;95854.09;6368895;28;20192;-65
2021/11/28 00:21:39;;;;;;;16.27;10.00;;;;;;;-0.30;89.55;95850.69;6368627;28;20242;-65
2021/11/28 00:24:41;;;;;;;18.50;10.70;;;;;;;-0.31;89.09;95836.91;6369110;28;20188;-65
2021/11/28 00:27:45;;;;;;;18.07;11.27;;;;;;;-0.34;89.26;95837.09;6350633;28;20723;-66
2021/11/28 00:30:48;;;;;;;21.17;11.70;;;;;;;-0.40;89.38;95848.69;6368594;28;20200;-65
2021/11/28 00:33:50;;;;;;;18.20;11.13;;;;;;;-0.44;89.13;95841.22;6371861;27;20675;-65
2021/11/28 00:36:53;;;;;;;20.20;11.97;;;;;;;-0.46;89.64;95853.44;6373549;27;20197;-65
2021/11/28 00:39:55;;;;;;;18.33;10.97;;;;;;;-0.46;89.68;95850.88;6355926;27;20187;-66
2021/11/28 00:42:58;;;;;;;16.87;10.30;;;;;;;-0.48;89.39;95850.13;6330066;28;20276;-65
2021/11/28 00:46:01;;;;;;;14.23;9.17;;;;;;;-0.48;89.80;95863.09;6337314;27;20189;-65
2021/11/28 00:49:11;;;;;;;15.43;8.53;;;;;;;-0.48;89.55;95865.69;6373598;27;20185;-65
2021/11/28 00:52:14;;;;;;;16.33;9.60;;;;;;;-0.49;89.83;95862.25;6355265;27;20292;-65
2021/11/28 00:55:16;;;;;;;16.90;10.20;;;;;;;-0.48;89.58;95863.09;6373447;27;20718;-65
2021/11/28 00:58:18;;;;;;;17.30;10.30;;;;;;;-0.47;89.40;95859.56;6373692;27;20304;-65
2021/11/28 01:01:20;;;;;;;17.50;10.73;;;;;;;-0.46;89.23;95840.50;6354751;27;20663;-65
2021/11/28 01:04:23;;;;;;;15.53;9.57;;;;;;;-0.48;89.48;95835.41;6354916;27;20228;-70
2021/11/28 01:07:27;;;;;;;15.20;9.23;;;;;;;-0.49;89.25;95835.50;6354484;27;20539;-65
2021/11/28 01:10:30;;;;;;;16.43;9.27;;;;;;;-0.49;89.77;95838.94;6373710;27;20272;-66
2021/11/28 01:13:32;;;;;;;17.30;10.17;;;;;;;-0.49;89.88;95835.50;6372940;27;20200;-65
2021/11/28 01:16:34;;;;;;;19.67;12.77;;;;;;;-0.52;89.25;95835.75;6373067;27;20345;-65
2021/11/28 01:19:38;;;;;;;20.87;11.37;;;;;;;-0.55;89.34;95833.34;6372701;27;20269;-65
2021/11/28 01:22:40;;;;;;;18.00;11.10;;;;;;;-0.57;89.33;95836.03;6373009;27;20181;-70
2021/11/28 01:25:42;;;;;;;18.10;10.37;;;;;;;-0.60;89.17;95825.84;6354143;27;20200;-67
2021/11/28 01:28:45;;;;;;;18.57;11.07;;;;;;;-0.62;89.30;95822.56;6372641;27;20225;-65
2021/11/28 01:31:54;;;;;;;15.50;9.57;;;;;;;-0.63;89.69;95830.44;6372879;27;20220;-66
2021/11/28 01:34:56;;;;;;;17.87;10.23;;;;;;;-0.63;89.25;95835.59;6353646;27;20220;-65
2021/11/28 01:37:58;;;;;;;12.57;8.23;;;;;;;-0.61;89.38;95847.53;6372454;27;20199;-66
2021/11/28 01:41:00;;;;;;;15.47;9.17;;;;;;;-0.61;89.54;95854.47;6354265;27;20200;-69
2021/11/28 01:44:04;;;;;;;16.57;10.10;;;;;;;-0.62;89.69;95858.81;6353726;27;20602;-65
2021/11/28 01:47:06;;;;;;;12.87;8.00;;;;;;;-0.61;89.33;95850.13;6372075;27;20218;-65
2021/11/28 01:50:08;;;;;;;15.87;9.70;;;;;;;-0.59;89.56;95855.19;6353567;27;20682;-65
2021/11/28 01:53:20;;;;;;;16.67;10.37;;;;;;;-0.60;89.56;95835.41;6371802;27;20208;-65
2021/11/28 01:56:24;;;;;;;14.60;8.67;;;;;;;-0.63;89.68;95825.25;6353604;27;20310;-65
2021/11/28 01:59:26;;;;;;;16.83;10.23;;;;;;;-0.63;89.37;95813.13;6353345;27;20249;-65
2021/11/28 02:02:29;;;;;;;15.07;9.43;;;;;;;-0.63;89.48;95807.94;6353066;27;20229;-66
2021/11/28 02:05:32;;;;;;;18.30;10.33;;;;;;;-0.67;89.47;95801.31;6353317;27;20192;-65
2021/11/28 02:08:36;;;;;;;15.50;10.27;;;;;;;-0.67;89.15;95800.47;6371492;27;20196;-65
2021/11/28 02:11:40;;;;;;;18.20;10.43;;;;;;;-0.66;89.24;95792.59;6370952;27;20221;-65
2021/11/28 02:14:42;;;;;;;17.60;10.27;;;;;;;-0.66;89.18;95786.59;6371485;27;20221;-66
2021/11/28 02:17:49;;;;;;;19.30;10.60;;;;;;;-0.67;89.57;95787.53;6353198;27;20708;-65
2021/11/28 02:20:55;;;;;;;15.17;8.53;;;;;;;-0.66;89.59;95778.81;6335568;27;20664;-65
2021/11/28 02:23:57;;;;;;;18.63;10.30;;;;;;;-0.65;89.62;95776.13;6352706;27;20193;-65
2021/11/28 02:26:59;;;;;;;14.33;8.80;;;;;;;-0.63;89.23;95773.44;6352675;27;20192;-65
2021/11/28 02:30:07;;;;;;;17.27;10.83;;;;;;;-0.64;89.35;95772.63;6370923;27;20197;-66
2021/11/28 02:33:10;;;;;;;16.13;9.93;;;;;;;-0.67;89.00;95771.97;6370624;27;20201;-67
2021/11/28 02:36:16;;;;;;;15.40;9.40;;;;;;;-0.66;89.42;95765.88;6370916;27;20193;-65
2021/11/28 02:39:21;;;;;;;18.10;10.73;;;;;;;-0.63;89.17;95760.50;6370966;27;20659;-65
2021/11/28 02:42:24;;;;;;;16.73;10.20;;;;;;;-0.62;89.78;95763.00;6328913;27;20244;-66
2021/11/28 02:45:28;;;;;;;16.23;9.90;;;;;;;-0.59;89.13;95770.53;6352092;27;20690;-66
2021/11/28 02:48:31;;;;;;;17.27;9.33;;;;;;;-0.55;89.15;95771.16;6352273;27;20207;-65
2021/11/28 02:51:34;;;;;;;15.93;9.17;;;;;;;-0.55;89.06;95768.56;6370315;27;20698;-66
2021/11/28 02:54:38;;;;;;;14.00;8.97;;;;;;;-0.54;89.20;95768.47;6335098;27;20216;-65
2021/11/28 02:57:40;;;;;;;14.67;9.43;;;;;;;-0.51;89.36;95750.16;6351441;27;20711;-66
2021/11/28 03:00:46;;;;;;;14.13;9.27;;;;;;;-0.48;89.36;95743.91;6351993;27;20576;-65
2021/11/28 03:03:53;;;;;;;16.37;10.17;;;;;;;-0.47;89.00;95738.63;6351832;27;20571;-65
2021/11/28 03:06:54;;;;;;;16.53;10.13;;;;;;;-0.47;88.89;95738.63;6370437;27;20181;-65
2021/11/28 03:09:57;;;;;;;15.23;9.67;;;;;;;-0.46;89.45;95729.94;6351381;27;20645;-65
2021/11/28 03:13:00;;;;;;;14.77;9.27;;;;;;;-0.45;88.90;95736.75;6351146;27;20232;-65
2021/11/28 03:16:06;;;;;;;19.97;10.60;;;;;;;-0.43;89.13;95731.47;6352199;27;20561;-65
2021/11/28 03:19:09;;;;;;;18.47;10.70;;;;;;;-0.44;89.29;95735.00;6369487;27;20197;-66
2021/11/28 03:22:11;;;;;;;19.60;10.80;;;;;;;-0.42;89.00;95740.91;6351329;27;20195;-66
2021/11/28 03:25:17;;;;;;;15.07;10.00;;;;;;;-0.42;89.39;95740.91;6369429;27;20189;-66
2021/11/28 03:28:19;;;;;;;18.50;10.10;;;;;;;-0.41;89.29;95727.03;6351523;27;20570;-66
2021/11/28 03:31:23;;;;;;;16.83;10.30;;;;;;;-0.39;89.25;95733.75;6350784;27;20199;-65
2021/11/28 03:34:48;;;;;;;23.10;12.57;;;;;;;-0.42;88.98;95726.19;6369153;27;20556;-66
2021/11/28 03:37:55;;;;;;;25.77;12.40;;;;;;;-0.46;88.69;95726.50;6369799;27;20211;-65
2021/11/28 03:40:58;;;;;;;28.23;13.53;;;;;;;-0.47;88.83;95719.66;6350430;27;20225;-65
2021/11/28 03:44:06;;;;;;;24.60;13.83;;;;;;;-0.44;88.77;95709.94;6369802;27;20185;-66
2021/11/28 03:47:23;;;;;;;38.90;16.97;;;;;;;-0.43;88.71;95687.44;6369274;27;20295;-65
2021/11/28 03:50:32;;;;;;;30.90;15.77;;;;;;;-0.43;89.21;95675.31;6369578;27;20224;-66
2021/11/28 03:53:37;;;;;;;32.70;15.00;;;;;;;-0.39;89.03;95676.75;6369298;27;20680;-66
2021/11/28 03:56:41;;;;;;;31.57;16.17;;;;;;;-0.36;89.04;95670.53;6351135;27;20208;-65
2021/11/28 03:59:43;;;;;;;40.33;17.63;;;;;;;-0.33;88.93;95666.91;6350973;27;20197;-66
2021/11/28 04:02:46;;;;;;;37.40;17.93;;;;;;;-0.39;89.09;95658.59;6333559;27;20193;-65
2021/11/28 04:05:50;;;;;;;32.13;16.30;;;;;;;-0.37;89.09;95656.75;6350501;27;20216;-65
2021/11/28 04:08:53;;;;;;;33.83;17.73;;;;;;;-0.34;89.22;95660.88;6350732;28;20675;-65
2021/11/28 04:11:57;;;;;;;40.17;18.73;;;;;;;-0.34;88.95;95655.72;6341210;28;20233;-66
2021/11/28 04:15:00;;;;;;;57.83;21.30;;;;;;;-0.34;89.40;95657.47;6342076;28;20695;-65
2021/11/28 04:18:02;;;;;;;83.40;24.30;;;;;;;-0.32;89.21;95645.25;6341905;28;20350;-66
2021/11/28 04:21:05;;;;;;;37.23;18.50;;;;;;;-0.33;89.22;95628.88;6343241;28;20201;-66
2021/11/28 04:24:09;;;;;;;31.67;17.73;;;;;;;-0.32;88.95;95635.69;6343244;28;20692;-65
2021/11/28 04:27:13;;;;;;;36.40;18.50;;;;;;;-0.33;89.15;95626.28;6343314;28;20601;-66
2021/11/28 04:30:15;;;;;;;101.43;22.47;;;;;;;-0.34;89.41;95637.56;6342125;28;20284;-66
2021/11/28 04:33:18;;;;;;;35.20;16.50;;;;;;;-0.37;89.81;95637.78;6341491;28;20254;-66
2021/11/28 04:36:20;;;;;;;29.37;16.70;;;;;;;-0.35;89.54;95642.84;6343407;28;20185;-66
2021/11/28 04:39:22;;;;;;;47.30;19.33;;;;;;;-0.35;89.82;95643.69;6341714;28;20197;-65
2021/11/28 04:42:27;;;;;;;55.07;19.70;;;;;;;-0.38;89.35;95636.94;6316918;28;20201;-65
2021/11/28 04:45:29;;;;;;;31.03;17.30;;;;;;;-0.42;89.61;95622.56;6318044;28;20195;-65
2021/11/28 04:48:36;;;;;;;26.40;14.67;;;;;;;-0.39;89.76;95624.09;6316728;28;20201;-66
2021/11/28 04:51:51;;;;;;;32.30;16.73;;;;;;;-0.36;89.45;95631.66;6317474;28;20195;-66
2021/11/28 04:54:57;;;;;;;36.30;14.93;;;;;;;-0.34;89.89;95628.97;6316344;28;20575;-65
2021/11/28 04:57:59;;;;;;;48.07;17.23;;;;;;;-0.36;89.85;95634.25;6316432;28;20564;-65
2021/11/28 05:01:02;;;;;;;64.83;19.83;;;;;;;-0.38;89.63;95639.53;6316029;28;20658;-65
2021/11/28 05:04:04;;;;;;;32.80;15.57;;;;;;;-0.37;89.75;95637.78;6316861;28;20805;-66
2021/11/28 05:07:12;;;;;;;27.83;15.07;;;;;;;-0.36;90.22;95639.44;6316231;28;20171;-65
2021/11/28 05:10:21;;;;;;;26.97;13.53;;;;;;;-0.34;89.81;95644.50;6318378;28;20620;-66
2021/11/28 05:13:30;;;;;;;32.70;15.87;;;;;;;-0.33;89.79;95623.69;6342535;28;20351;-65
2021/11/28 05:16:33;;;;;;;31.93;15.13;;;;;;;-0.33;89.94;95615.06;6323921;28;20243;-66
2021/11/28 05:19:38;;;;;;;33.57;14.80;;;;;;;-0.31;90.13;95602.84;6367293;27;20377;-66
2021/11/28 05:22:52;;;;;;;27.73;14.63;;;;;;;-0.31;90.23;95598.50;6372641;27;20189;-65
2021/11/28 05:25:57;;;;;;;25.67;13.80;;;;;;;-0.29;90.27;95588.00;6372699;27;20688;-72
2021/11/28 05:28:59;;;;;;;33.90;15.53;;;;;;;-0.28;89.97;95592.25;6372604;27;20189;-65
2021/11/28 05:32:03;;;;;;;25.70;13.57;;;;;;;-0.28;90.15;95581.88;6337176;27;20647;-65
2021/11/28 05:35:24;;;;;;;34.77;16.33;;;;;;;-0.29;89.97;95586.22;6372466;27;20205;-66
2021/11/28 05:38:52;;;;;;;32.67;14.70;;;;;;;-0.27;90.00;95580.94;6348071;27;20208;-65
2021/11/28 05:41:55;;;;;;;32.30;15.37;;;;;;;-0.30;90.13;95579.38;6353361;27;20193;-66
2021/11/28 05:44:57;;;;;;;29.00;13.77;;;;;;;-0.31;89.73;95590.72;6372465;27;20181;-65
2021/11/28 05:48:19;;;;;;;34.50;14.47;;;;;;;-0.31;90.28;95590.72;6372472;27;20197;-66
2021/11/28 05:51:41;;;;;;;35.17;17.00;;;;;;;-0.32;89.92;95585.63;6360961;27;20724;-66
2021/11/28 05:54:46;;;;;;;32.80;15.47;;;;;;;-0.34;90.05;95580.56;6353383;27;20769;-65
2021/11/28 05:57:50;;;;;;;34.03;15.33;;;;;;;-0.34;89.85;95571.97;6353885;27;20675;-66
2021/11/28 06:00:52;;;;;;;31.20;13.73;;;;;;;-0.34;90.00;95583.16;6336789;28;20204;-66
2021/11/28 06:03:55;;;;;;;19.87;11.00;;;;;;;-0.33;89.86;95587.41;6360191;27;20188;-65
2021/11/28 06:07:16;;;;;;;28.77;14.47;;;;;;;-0.30;90.02;95597.53;6371566;27;20598;-65
2021/11/28 06:10:19;;;;;;;28.00;15.20;;;;;;;-0.28;89.84;95610.38;6371571;27;20642;-66
2021/11/28 06:13:21;;;;;;;26.87;13.30;;;;;;;-0.28;89.82;95607.78;6371107;27;20196;-66
2021/11/28 06:16:42;;;;;;;28.43;13.90;;;;;;;-0.28;90.00;95600.84;6371506;27;20197;-66
2021/11/28 06:20:04;;;;;;;24.97;13.20;;;;;;;-0.29;89.97;95596.59;6356296;27;20272;-65
2021/11/28 06:23:41;;;;;;;23.10;12.77;;;;;;;-0.29;90.21;95599.19;6358993;27;20744;-65
2021/11/28 06:26:43;;;;;;;29.40;14.70;;;;;;;-0.30;89.98;95604.50;6352568;27;20197;-66
2021/11/28 06:29:47;;;;;;;26.53;13.40;;;;;;;-0.30;90.35;95602.72;6353301;27;20188;-66
2021/11/28 06:32:50;;;;;;;24.57;13.20;;;;;;;-0.28;90.08;95608.63;6352303;27;20618;-66
2021/11/28 06:36:24;;;;;;;27.07;13.60;;;;;;;-0.28;89.98;95598.25;6370310;27;20270;-67
2021/11/28 06:39:58;;;;;;;29.87;13.90;;;;;;;-0.27;89.88;95597.31;6336330;27;20245;-65
2021/11/28 06:43:13;;;;;;;26.10;13.63;;;;;;;-0.25;90.32;95600.63;6352101;27;20197;-66
2021/11/28 06:46:15;;;;;;;31.23;14.23;;;;;;;-0.23;90.31;95598.78;6351724;27;20204;-65
2021/11/28 06:49:17;;;;;;;28.53;14.27;;;;;;;-0.21;90.13;95594.31;6370812;27;20181;-66
2021/11/28 06:52:48;;;;;;;25.77;13.33;;;;;;;-0.20;89.83;95588.16;6351477;27;20205;-66
2021/11/28 06:56:16;;;;;;;25.87;14.30;;;;;;;-0.17;89.99;95581.94;6338616;27;20251;-65
2021/11/28 06:59:21;;;;;;;23.77;13.60;;;;;;;-0.15;90.02;95580.91;6352136;27;20197;-66
2021/11/28 07:02:23;;;;;;;22.47;12.33;;;;;;;-0.14;90.15;95579.97;6351917;27;20303;-66
2021/11/28 07:05:26;;;;;;;25.00;12.63;;;;;;;-0.11;90.00;95571.16;6370545;27;20200;-66
2021/11/28 07:08:28;;;;;;;23.13;12.27;;;;;;;-0.10;90.16;95560.66;6351664;27;20196;-66
2021/11/28 07:11:31;;;;;;;27.57;13.90;;;;;;;-0.08;90.33;95552.75;6334555;27;20236;-66
2021/11/28 07:14:35;;;;;;;20.50;11.37;;;;;;;-0.05;90.07;95545.59;6351610;27;20221;-65
2021/11/28 07:17:38;;;;;;;20.77;10.90;;;;;;;-0.04;89.61;95536.88;6370024;27;20241;-67
2021/11/28 07:20:45;;;;;;;21.80;12.00;;;;;;;-0.04;89.81;95534.28;6351504;27;20648;-66
2021/11/28 07:23:47;;;;;;;20.43;12.27;;;;;;;-0.02;90.16;95537.63;6351244;27;20200;-66
2021/11/28 07:26:51;;;;;;;22.17;13.10;;;;;;;0.03;89.93;95524.28;6351357;27;20196;-65
2021/11/28 07:29:55;;;;;;;25.37;13.40;;;;;;;0.11;90.10;95521.97;6351793;27;20196;-66
2021/11/28 07:32:58;;;;;;;26.47;13.73;;;;;;;0.20;90.35;95523.06;6369841;27;20200;-66
2021/11/28 07:36:19;;;;;;;21.70;12.03;;;;;;;0.21;89.80;95522.09;6369390;27;20205;-65
2021/11/28 07:39:21;;;;;;;19.37;11.67;;;;;;;0.23;89.65;95528.00;6351051;27;20215;-66
2021/11/28 07:42:26;;;;;;;20.33;11.50;;;;;;;0.27;89.92;95521.69;6350645;27;20200;-66
2021/11/28 07:45:35;;;;;;;19.73;11.97;;;;;;;0.30;89.58;95547.41;6369354;27;20169;-65
2021/11/28 07:48:56;;;;;;;18.97;10.90;;;;;;;0.28;89.55;95549.28;6344031;28;20204;-66
2021/11/28 07:52:00;;;;;;;18.93;10.80;;;;;;;0.27;89.82;95543.25;6348891;27;20277;-66
2021/11/28 07:55:04;;;;;;;20.83;12.20;;;;;;;0.25;89.79;95539.13;6350585;27;20723;-68
2021/11/28 07:58:26;;;;;;;18.00;10.27;;;;;;;0.24;89.99;95542.63;6337067;27;20219;-68
2021/11/28 08:01:33;;;;;;;15.50;9.60;;;;;;;0.27;89.38;95558.00;6350344;27;20769;-66
2021/11/28 08:04:54;;;;;;;17.67;10.07;;;;;;;0.29;89.36;95566.50;6369612;27;20193;-66
2021/11/28 08:08:16;;;;;;;17.10;10.47;;;;;;;0.30;89.37;95578.53;6369539;27;20201;-66
2021/11/28 08:11:33;;;;;;;18.50;11.37;;;;;;;0.30;89.21;95576.72;6352575;27;20240;-66
2021/11/28 08:14:35;;;;;;;16.63;9.80;;;;;;;0.30;89.40;95584.50;6368929;27;20557;-66
2021/11/28 08:17:38;;;;;;;16.17;9.47;;;;;;;0.31;89.49;95583.56;6369164;28;20195;-65
2021/11/28 08:20:40;;;;;;;17.57;10.77;;;;;;;0.27;89.31;95591.72;6351319;28;20192;-66
2021/11/28 08:23:42;;;;;;;17.53;10.83;;;;;;;0.23;89.44;95590.25;6368838;28;20199;-68
2021/11/28 08:26:44;;;;;;;14.97;9.30;;;;;;;0.19;89.03;95587.09;6368913;28;20187;-66
2021/11/28 08:29:47;;;;;;;16.57;9.30;;;;;;;0.21;89.46;95592.13;6369229;28;20205;-66
2021/11/28 08:33:21;;;;;;;13.77;8.73;;;;;;;0.21;89.54;95589.53;6368251;28;20251;-66
2021/11/28 08:36:42;;;;;;;13.20;8.80;;;;;;;0.18;89.39;95590.63;6368287;28;20723;-66
2021/11/28 08:39:46;;;;;;;9.00;6.33;;;;;;;0.19;89.08;95592.28;6368832;28;20660;-66
2021/11/28 08:42:48;;;;;;;6.43;4.77;;;;;;;0.22;89.09;95593.78;6368731;28;20189;-66
2021/11/28 08:45:51;;;;;;;7.50;5.00;;;;;;;0.22;89.03;95593.78;6368323;28;20612;-66
2021/11/28 08:48:54;;;;;;;8.37;5.30;;;;;;;0.21;88.96;95597.31;6368761;28;20185;-66
2021/11/28 08:51:56;;;;;;;6.00;4.37;;;;;;;0.20;89.48;95601.69;6368429;28;20185;-66
2021/11/28 08:54:59;;;;;;;4.97;3.90;;;;;;;0.21;89.38;95602.50;6371577;27;20691;-66
2021/11/28 08:58:01;;;;;;;4.70;3.43;;;;;;;0.22;88.93;95601.56;6373528;27;20736;-66
2021/11/28 09:01:03;;;;;;;5.23;4.10;;;;;;;0.25;89.16;95601.38;6373682;27;20597;-66
2021/11/28 09:04:06;;;;;;;5.43;4.30;;;;;;;0.24;88.91;95604.88;6373653;27;20594;-66
2021/11/28 09:07:08;;;;;;;5.23;4.27;;;;;;;0.28;88.71;95608.94;6354980;27;20193;-66
2021/11/28 09:10:10;;;;;;;4.90;4.30;;;;;;;0.29;88.35;95621.78;6354917;27;20228;-66
2021/11/28 09:13:13;;;;;;;4.70;3.50;;;;;;;0.32;88.76;95612.94;6372522;27;20310;-66
2021/11/28 09:16:17;;;;;;;3.90;3.43;;;;;;;0.43;88.55;95618.16;6354359;27;20211;-66
2021/11/28 09:19:25;;;;;;;4.27;3.60;;;;;;;0.58;88.62;95621.41;6372944;27;20572;-66
2021/11/28 09:25:42;;;;;;;3.87;2.87;;;;;;;0.81;87.14;95604.94;6372846;27;20172;-66
2021/11/28 09:28:46;;;;;;;2.50;2.30;;;;;;;0.96;86.36;95613.38;6373000;27;20211;-66
2021/11/28 09:31:48;;;;;;;2.60;2.40;;;;;;;0.92;84.91;95628.34;6372252;27;20288;-68
2021/11/28 09:34:50;;;;;;;1.87;1.60;;;;;;;0.91;84.81;95623.25;6372668;27;20569;-66
2021/11/28 09:37:53;;;;;;;1.70;1.30;;;;;;;1.06;85.33;95593.53;6372438;27;20197;-66
2021/11/28 09:40:56;;;;;;;2.00;1.50;;;;;;;1.20;84.67;95593.31;6353885;27;20686;-66
2021/11/28 09:44:04;;;;;;;1.57;1.10;;;;;;;1.26;84.15;95587.66;6372549;27;20196;-66
2021/11/28 09:47:11;;;;;;;1.50;1.33;;;;;;;1.30;84.12;95580.47;6372206;27;20192;-66
2021/11/28 09:50:13;;;;;;;1.30;1.20;;;;;;;1.34;83.72;95572.28;6372308;27;20189;-66
2021/11/28 09:53:16;;;;;;;1.10;1.00;;;;;;;1.40;82.40;95574.41;6372203;27;20577;-66
2021/11/28 09:56:18;;;;;;;1.20;1.10;;;;;;;1.72;81.83;95566.69;6371726;27;20208;-66
2021/11/28 09:59:21;;;;;;;0.93;0.93;;;;;;;1.99;80.95;95563.69;6371804;27;20188;-66
2021/11/28 10:02:32;;;;;;;1.43;1.10;;;;;;;2.21;80.07;95574.00;6371775;27;20196;-66
2021/11/28 10:05:34;;;;;;;1.17;0.97;;;;;;;2.32;78.75;95554.09;6371592;27;20189;-66
2021/11/28 10:08:37;;;;;;;0.60;0.60;;;;;;;2.40;77.51;95554.28;6353100;27;20189;-66
2021/11/28 10:11:39;;;;;;;1.00;0.90;;;;;;;2.35;77.09;95561.66;6371315;27;20239;-67
2021/11/28 10:14:46;;;;;;;0.70;0.70;;;;;;;2.27;77.66;95556.25;6371744;27;20201;-66
2021/11/28 10:17:48;;;;;;;1.03;0.93;;;;;;;2.29;77.83;95556.97;6371637;27;20189;-66
2021/11/28 10:20:51;;;;;;;1.20;1.10;;;;;;;2.04;77.42;95568.50;6371087;27;20599;-66
2021/11/28 10:24:28;;;;;;;1.20;1.10;;;;;;;1.80;78.31;95571.28;6371695;27;20229;-66
2021/11/28 10:27:36;;;;;;;1.10;1.00;;;;;;;1.80;78.88;95573.88;6242575;28;20200;-66
2021/11/28 10:30:43;;;;;;;1.20;1.10;;;;;;;1.66;79.36;95580.19;6243401;28;20230;-66
2021/11/28 10:33:47;;;;;;;1.60;1.47;;;;;;;1.51;79.61;95590.94;6242468;28;20222;-66
2021/11/28 10:36:52;;;;;;;1.70;1.60;;;;;;;1.25;80.09;95591.19;6225742;28;20282;-67
2021/11/28 10:40:00;;;;;;;1.57;1.33;;;;;;;1.18;80.72;95602.19;6242934;28;20192;-66
2021/11/28 10:43:17;;;;;;;1.60;1.50;;;;;;;1.05;80.68;95597.91;6217731;28;20209;-66
2021/11/28 10:46:30;;;;;;;1.57;1.47;;;;;;;0.98;81.14;95586.34;6229152;28;20196;-67
2021/11/28 10:49:37;;;;;;;1.50;1.40;;;;;;;1.07;81.10;95583.06;6225819;28;20618;-67
2021/11/28 10:52:41;;;;;;;1.53;1.37;;;;;;;1.19;80.80;95570.06;6242706;28;20200;-67
2021/11/28 10:55:58;;;;;;;1.90;1.47;;;;;;;1.25;81.02;95569.59;6242507;28;20379;-67
2021/11/28 10:59:20;;;;;;;1.67;1.50;;;;;;;1.30;80.92;95560.47;6225735;28;20343;-66
2021/11/28 11:02:32;;;;;;;1.40;1.30;;;;;;;1.27;80.34;95563.34;6335565;27;20687;-67
2021/11/28 11:05:35;;;;;;;1.60;1.50;;;;;;;1.25;80.61;95564.38;6352521;27;20182;-67
2021/11/28 11:08:38;;;;;;;1.93;1.60;;;;;;;1.14;80.24;95560.03;6335473;27;20192;-67
2021/11/28 11:11:39;;;;;;;2.00;1.77;;;;;;;1.25;80.10;95549.63;6369928;27;20624;-68
2021/11/28 11:14:42;;;;;;;1.67;1.57;;;;;;;1.28;80.06;95553.78;6370591;27;20640;-67
2021/11/28 11:17:59;;;;;;;1.80;1.70;;;;;;;1.34;80.25;95559.31;6369271;27;20201;-66
2021/11/28 11:21:04;;;;;;;1.90;1.70;;;;;;;1.35;79.97;95565.34;6369906;27;20591;-67
2021/11/28 11:24:24;;;;;;;2.27;2.07;;;;;;;1.40;79.98;95571.81;6352036;27;20200;-66
2021/11/28 11:27:33;;;;;;;2.17;1.90;;;;;;;1.38;80.47;95573.72;6369432;27;20209;-66
2021/11/28 11:30:41;;;;;;;2.03;1.83;;;;;;;1.44;80.30;95591.44;6352443;27;20197;-66
2021/11/28 11:33:43;;;;;;;2.00;1.80;;;;;;;1.44;80.37;95588.81;6369670;27;20566;-67
2021/11/28 11:36:53;;;;;;;2.20;2.00;;;;;;;1.43;80.52;95566.38;6368409;27;20205;-68
2021/11/28 11:39:57;;;;;;;2.67;2.27;;;;;;;1.34;80.24;95569.69;6348981;27;20180;-67
2021/11/28 11:43:00;;;;;;;2.10;1.90;;;;;;;1.31;80.57;95561.31;6369696;27;20200;-67
2021/11/28 11:46:07;;;;;;;2.37;2.17;;;;;;;1.39;80.76;95554.59;6369589;27;20561;-67
2021/11/28 11:49:09;;;;;;;2.10;1.90;;;;;;;1.42;80.43;95550.91;6369639;27;20197;-67
2021/11/28 11:52:13;;;;;;;2.13;1.93;;;;;;;1.42;79.89;95548.31;6369346;27;20196;-66
2021/11/28 11:55:27;;;;;;;2.23;2.03;;;;;;;1.56;80.36;95550.66;6369542;27;20581;-67
2021/11/28 11:58:55;;;;;;;2.10;1.90;;;;;;;1.76;79.98;95551.69;6369608;27;20195;-67
2021/11/28 12:02:01;;;;;;;2.00;1.83;;;;;;;1.85;80.06;95546.56;6369273;27;20772;-67
2021/11/28 12:05:25;;;;;;;2.23;2.03;;;;;;;1.82;80.26;95561.59;6350687;28;20565;-67
2021/11/28 12:08:31;;;;;;;2.50;2.30;;;;;;;1.71;80.76;95559.84;6369314;27;20185;-67
2021/11/28 12:11:57;;;;;;;1.80;1.60;;;;;;;1.61;81.01;95566.72;6368636;27;20285;-67
2021/11/28 12:15:20;;;;;;;2.20;1.90;;;;;;;1.52;81.68;95562.22;6350792;28;20227;-67
2021/11/28 12:18:35;;;;;;;1.70;1.60;;;;;;;1.44;81.75;95549.84;6368999;28;20570;-67
2021/11/28 12:21:40;;;;;;;2.13;1.93;;;;;;;1.30;81.87;95528.50;6350426;28;20201;-69
2021/11/28 12:24:42;;;;;;;3.00;2.77;;;;;;;1.23;82.43;95512.53;6334235;28;20192;-67
2021/11/28 12:27:49;;;;;;;3.63;2.93;;;;;;;1.20;82.45;95523.16;6369978;27;20192;-67
2021/11/28 12:30:54;;;;;;;4.23;3.43;;;;;;;1.12;81.96;95541.13;6355708;27;20199;-66
2021/11/28 12:33:56;;;;;;;3.80;3.23;;;;;;;1.07;82.21;95538.06;6356027;27;20197;-67
2021/11/28 12:37:00;;;;;;;4.13;3.33;;;;;;;1.11;82.60;95522.09;6355585;27;20466;-67
2021/11/28 12:40:21;;;;;;;4.50;3.70;;;;;;;1.19;83.02;95505.97;6373935;27;20196;-68
2021/11/28 12:43:23;;;;;;;5.47;3.47;;;;;;;1.26;82.02;95498.50;6374223;27;20660;-67
2021/11/28 12:46:47;;;;;;;4.10;3.70;;;;;;;1.21;82.32;95514.44;6355948;27;20659;-67
2021/11/28 12:50:14;;;;;;;5.17;3.80;;;;;;;1.13;82.69;95524.59;6355664;27;20227;-67
2021/11/28 12:53:38;;;;;;;4.13;3.50;;;;;;;1.19;82.85;95518.13;6373596;27;20185;-67
2021/11/28 12:56:40;;;;;;;4.57;3.53;;;;;;;1.20;83.35;95491.19;6373425;27;20610;-67
2021/11/28 13:00:23;;;;;;;4.27;3.47;;;;;;;1.14;82.86;95479.50;6373675;27;20188;-67
2021/11/28 13:03:26;;;;;;;3.43;3.07;;;;;;;1.10;82.89;95478.06;6373379;27;20181;-67
2021/11/28 13:06:28;;;;;;;4.70;4.13;;;;;;;1.06;83.66;95480.09;6373411;27;20188;-67
2021/11/28 13:09:49;;;;;;;4.27;3.80;;;;;;;1.02;84.17;95491.66;6373167;27;20200;-67
2021/11/28 13:13:08;;;;;;;4.17;3.50;;;;;;;1.06;83.85;95500.88;6355134;27;20229;-67
2021/11/28 13:16:17;;;;;;;3.90;3.50;;;;;;;1.11;84.06;95490.13;6373189;27;20246;-66
2021/11/28 13:19:20;;;;;;;4.67;3.70;;;;;;;1.13;83.65;95470.06;6354724;27;20631;-66
2021/11/28 13:22:42;;;;;;;4.33;3.60;;;;;;;1.09;83.58;95487.66;6372971;27;20727;-67
2021/11/28 13:26:03;;;;;;;3.53;3.23;;;;;;;1.15;83.51;95491.53;6373076;27;20564;-67
2021/11/28 13:29:10;;;;;;;3.93;3.00;;;;;;;1.19;83.74;95490.38;6372506;27;20196;-67
2021/11/28 13:32:13;;;;;;;4.43;4.03;;;;;;;1.16;83.69;95488.00;6356137;27;20201;-66
2021/11/28 13:35:16;;;;;;;4.87;4.23;;;;;;;1.18;83.74;95500.88;6360146;27;20209;-68
2021/11/28 13:38:27;;;;;;;5.03;4.10;;;;;;;1.17;83.47;95517.41;6372646;27;20185;-66
2021/11/28 13:41:29;;;;;;;4.90;3.77;;;;;;;1.20;83.98;95519.78;6371149;27;20192;-67
2021/11/28 13:44:31;;;;;;;3.70;3.20;;;;;;;1.15;83.72;95527.06;6372401;27;20191;-67
2021/11/28 13:47:33;;;;;;;5.23;4.07;;;;;;;1.08;83.51;95530.16;6373070;27;20202;-67
2021/11/28 13:50:35;;;;;;;5.30;3.60;;;;;;;1.11;83.38;95536.88;6353811;27;20196;-72
2021/11/28 13:53:52;;;;;;;4.13;3.70;;;;;;;1.12;83.59;95548.91;6371998;27;20238;-67
2021/11/28 13:57:02;;;;;;;4.67;3.93;;;;;;;1.14;83.53;95554.00;6371797;27;20223;-67
2021/11/28 14:00:06;;;;;;;3.20;2.90;;;;;;;1.11;83.25;95557.66;6372066;27;20709;-69
2021/11/28 14:03:13;;;;;;;3.93;3.03;;;;;;;1.07;83.52;95533.69;6352903;27;20573;-68
2021/11/28 14:06:15;;;;;;;3.17;2.60;;;;;;;1.06;83.69;95545.03;6372024;27;20554;-68
2021/11/28 14:09:19;;;;;;;4.47;3.20;;;;;;;1.01;83.51;95539.34;6371637;27;20195;-67
2021/11/28 14:12:24;;;;;;;3.70;3.40;;;;;;;0.92;83.92;95560.00;6353015;27;20231;-67
2021/11/28 14:15:29;;;;;;;4.30;3.30;;;;;;;0.84;84.85;95562.34;6352923;27;20244;-67
2021/11/28 14:18:40;;;;;;;4.03;3.07;;;;;;;0.82;84.55;95575.44;6371536;27;20598;-68
2021/11/28 14:21:42;;;;;;;4.47;3.07;;;;;;;0.82;84.51;95577.22;6345706;28;20231;-67
2021/11/28 14:25:24;;;;;;;3.47;3.03;;;;;;;0.78;85.09;95587.03;6346095;28;20207;-67
2021/11/28 14:28:36;;;;;;;3.93;3.23;;;;;;;0.74;84.84;95599.41;6371013;27;20744;-68
2021/11/28 14:31:54;;;;;;;4.20;2.70;;;;;;;0.70;85.46;95612.69;6370738;27;20197;-67
2021/11/28 14:35:19;;;;;;;4.03;2.97;;;;;;;0.68;85.07;95596.44;6371460;27;20246;-67
2021/11/28 14:38:22;;;;;;;3.67;3.07;;;;;;;0.64;85.64;95595.00;6352967;27;20200;-67
2021/11/28 14:41:34;;;;;;;5.00;3.60;;;;;;;0.63;85.74;95583.78;6352230;27;20219;-68
2021/11/28 14:44:43;;;;;;;4.30;3.00;;;;;;;0.66;85.59;95588.75;6352812;27;20237;-68